Aviation Digital Data Service (ADDS)

Output produced by METARs form (2226 UTC 01 December 2021)
found at http://www.aviationweather.gov/metar/data/
 
Forecast for: ZSPD (SHANGHAI/PUDONG , CN)
Text: TAF ZSPD 012103Z 0200/0224 32004MPS 6000 BKN020 TX11/0206Z TN03/0222Z
Forecast period: 0000 UTC 02 December 2021 to 0000 UTC 03 December 2021
Forecast type: FROM: standard forecast or significant change
Winds: from the NW (320 degrees) at 9 MPH (8 knots; 4.1 m/s)
Visibility: 4 miles (6 km)
Ceiling: 2000 feet AGL
Clouds: broken clouds at 2000 feet AGL
Weather: no significant weather forecast for this period